Time;durP1;ratioP1;P1;durP2;ratioP2;P2;SDS_P1;SDS_P2;PMS_P1;PMS_P2;Temp;Humidity;BMP_temperature;BMP_pressure;BME280_temperature;BME280_humidity;BME280_pressure;Samples;Min_cycle;Max_cycle;Signal;HPM_P1;HPM_P2
2021/06/12 00:06:31;;;;;;;;;;;;;;;21.66;63.88;101050.81;15664861;28;20056;-62
2021/06/12 00:14:04;;;;;;;1999.90;999.90;;;;;;;21.46;63.08;101036.16;15649169;28;19927;-61
2021/06/12 00:21:37;;;;;;;1999.90;999.90;;;;;;;21.35;63.78;101034.47;15641812;28;20102;-60
2021/06/12 00:29:10;;;;;;;1999.90;999.90;;;;;;;21.28;64.65;101038.94;15652608;28;20041;-63
2021/06/12 00:36:41;;;;;;;1999.90;999.90;;;;;;;21.09;64.18;101032.72;15657884;28;20141;-65
2021/06/12 00:44:16;;;;;;;1999.90;999.90;;;;;;;21.13;64.04;101022.19;15644672;28;20048;-60
2021/06/12 00:51:48;;;;;;;;;;;;;;;21.19;65.23;101023.44;15639464;28;20045;-62
2021/06/12 00:59:22;;;;;;;1999.90;999.90;;;;;;;21.03;64.56;101018.91;15637966;22;19921;-60
2021/06/12 01:06:53;;;;;;;1999.90;999.90;;;;;;;21.08;64.33;101020.56;15545432;28;20042;-60
2021/06/12 01:14:31;;;;;;;1999.90;999.90;;;;;;;21.11;63.97;101014.09;15548770;28;20052;-59
2021/06/12 01:22:08;;;;;;;1999.90;999.90;;;;;;;21.17;63.68;101003.19;15550661;28;20410;-60
2021/06/12 01:30:20;;;;;;;1999.90;999.90;;;;;;;21.16;64.14;100991.03;15514609;28;20077;-60
2021/06/12 01:37:55;;;;;;;1999.90;999.90;;;;;;;21.20;64.30;100996.69;15300815;28;20061;-60
2021/06/12 01:45:27;;;;;;;1999.90;999.90;;;;;;;21.29;63.75;100997.19;15547495;28;20300;-60
2021/06/12 01:53:02;;;;;;;1999.90;999.90;;;;;;;21.28;63.68;100998.41;15546866;28;20042;-60
2021/06/12 02:00:36;;;;;;;1999.90;999.90;;;;;;;21.36;64.60;100999.22;15513684;28;20057;-60
2021/06/12 02:08:10;;;;;;;1999.90;999.90;;;;;;;21.44;63.52;101000.88;15547523;28;20111;-60
2021/06/12 02:15:42;;;;;;;1999.90;999.90;;;;;;;21.32;64.37;100993.53;15548623;28;20038;-60
2021/06/12 02:23:15;;;;;;;1999.90;999.90;;;;;;;21.51;63.03;101001.72;15559216;28;20100;-59
2021/06/12 02:30:53;;;;;;;1999.90;999.90;;;;;;;21.43;63.67;101008.56;15559567;28;20060;-59
2021/06/12 02:38:26;;;;;;;1999.90;999.90;;;;;;;21.45;64.63;101011.00;15541837;28;20042;-60
2021/06/12 02:45:58;;;;;;;1999.90;999.90;;;;;;;21.37;64.49;100998.03;15541469;28;20046;-59
2021/06/12 02:53:36;;;;;;;1999.90;999.90;;;;;;;21.42;64.37;101000.47;15560487;28;20050;-60
2021/06/12 03:01:10;;;;;;;1999.90;999.90;;;;;;;21.48;64.37;101016.72;15557842;28;20093;-59
2021/06/12 03:08:47;;;;;;;1999.90;999.90;;;;;;;21.46;64.85;101012.63;15524637;28;20061;-60
2021/06/12 03:16:19;;;;;;;1999.90;999.90;;;;;;;21.53;64.29;101022.00;15555277;28;20041;-60
2021/06/12 03:23:53;;;;;;;1999.90;999.90;;;;;;;21.40;64.58;101026.41;15537578;28;20387;-60
2021/06/12 03:31:27;;;;;;;1999.90;999.90;;;;;;;21.60;64.48;101039.06;15520025;28;20056;-60
2021/06/12 03:39:00;;;;;;;1999.90;999.90;;;;;;;21.56;64.51;101031.72;15554536;28;20120;-60
2021/06/12 03:46:31;;;;;;;;;;;;;;;21.79;64.43;101048.44;15536331;28;20570;-60
2021/06/12 03:54:05;;;;;;;1999.90;999.90;;;;;;;21.77;64.54;101045.97;15536785;28;19922;-59
2021/06/12 04:01:37;;;;;;;1999.90;999.90;;;;;;;21.79;65.13;101028.56;15535763;28;20045;-60
2021/06/12 04:09:10;;;;;;;1999.90;999.90;;;;;;;22.05;64.40;101021.69;15519092;28;20046;-60
2021/06/12 04:16:41;;;;;;;;;;;;;;;22.26;64.63;101010.38;15553085;28;20053;-60
2021/06/12 04:24:15;;;;;;;1999.90;999.90;;;;;;;22.47;63.41;101041.63;15552073;28;19921;-59
2021/06/12 04:31:46;;;;;;;1999.90;999.90;;;;;;;22.38;62.91;101035.53;15533101;28;20057;-60
2021/06/12 04:39:20;;;;;;;1999.90;999.90;;;;;;;22.63;62.71;101049.75;15513115;28;20052;-60
2021/06/12 04:46:51;;;;;;;1999.90;999.90;;;;;;;22.62;63.60;101033.13;15531556;28;20050;-59
2021/06/12 04:54:25;;;;;;;1999.90;999.90;;;;;;;22.57;62.82;101036.34;15532234;28;20046;-59
2021/06/12 05:01:57;;;;;;;1999.90;999.90;;;;;;;22.84;62.74;101034.72;15531588;28;20049;-59
2021/06/12 05:09:30;;;;;;;1999.90;999.90;;;;;;;23.18;61.65;101040.72;15531441;28;20391;-60
2021/06/12 05:17:04;;;;;;;1999.90;999.90;;;;;;;23.12;61.78;101033.81;15514917;28;20103;-60
2021/06/12 05:24:37;;;;;;;1999.90;999.90;;;;;;;23.24;61.15;101026.88;15548854;28;20054;-61
2021/06/12 05:32:09;;;;;;;1999.90;999.90;;;;;;;23.32;60.76;101029.28;15548682;28;20045;-59
2021/06/12 05:39:42;;;;;;;1999.90;999.90;;;;;;;23.42;60.00;101018.25;15548808;28;20498;-61
2021/06/12 05:47:14;;;;;;;1999.90;999.90;;;;;;;22.95;60.29;101012.75;15548718;28;20042;-61
2021/06/12 05:54:46;;;;;;;1999.90;999.90;;;;;;;22.96;60.44;101036.31;15556119;28;20072;-57
2021/06/12 06:02:18;;;;;;;1999.90;999.90;;;;;;;22.46;61.37;101034.31;15559669;28;20481;-61
2021/06/12 06:09:51;;;;;;;1999.90;999.90;;;;;;;22.60;62.49;101041.22;15542157;28;20434;-61
2021/06/12 06:17:23;;;;;;;1999.90;999.90;;;;;;;22.26;64.11;101038.78;15540319;28;20053;-61
2021/06/12 06:24:56;;;;;;;1999.90;999.90;;;;;;;22.03;64.55;101039.16;15540772;28;20050;-59
2021/06/12 06:32:28;;;;;;;1999.90;999.90;;;;;;;22.11;64.10;101031.50;15540818;28;20041;-60
2021/06/12 06:40:01;;;;;;;1999.90;999.90;;;;;;;22.17;64.36;101041.22;15557733;28;20081;-60
2021/06/12 06:47:32;;;;;;;1999.90;999.90;;;;;;;22.29;63.86;101037.16;15557188;28;20101;-59
2021/06/12 06:55:07;;;;;;;1999.90;999.90;;;;;;;22.46;63.40;101034.31;15539755;28;20049;-60
2021/06/12 07:02:38;;;;;;;1999.90;999.90;;;;;;;22.65;63.29;101033.09;15538343;28;20038;-59
2021/06/12 07:10:12;;;;;;;1999.90;999.90;;;;;;;23.14;62.03;101033.44;15538492;28;20054;-60
2021/06/12 07:17:46;;;;;;;1999.90;999.90;;;;;;;23.13;61.65;101037.47;15555487;28;20480;-57
2021/06/12 07:25:19;;;;;;;1999.90;999.90;;;;;;;23.28;61.57;101025.66;15539644;28;20115;-59
2021/06/12 07:32:51;;;;;;;1999.90;999.90;;;;;;;23.65;60.58;101015.72;15556062;28;20061;-59
2021/06/12 07:40:24;;;;;;;1999.90;999.90;;;;;;;23.58;61.39;101013.75;15554451;28;20049;-60
2021/06/12 07:47:55;;;;;;;1999.90;999.90;;;;;;;23.45;61.69;101012.56;15554234;28;20440;-59
2021/06/12 07:55:28;;;;;;;1999.90;999.90;;;;;;;23.42;61.75;101009.72;15553106;28;20049;-60
2021/06/12 08:03:00;;;;;;;1999.90;999.90;;;;;;;23.22;62.64;101006.53;15553262;28;20042;-60
2021/06/12 08:10:33;;;;;;;1999.90;999.90;;;;;;;23.44;62.27;100993.84;15552670;28;20132;-60
2021/06/12 08:18:05;;;;;;;1999.90;999.90;;;;;;;22.91;63.18;100982.66;15534474;28;20046;-60
2021/06/12 08:25:38;;;;;;;1999.90;999.90;;;;;;;23.29;62.86;100986.59;15553160;28;20038;-60
2021/06/12 08:33:13;;;;;;;1999.90;999.90;;;;;;;23.51;62.33;100968.16;15533932;28;20556;-59
2021/06/12 08:40:48;;;;;;;1999.90;999.90;;;;;;;23.37;62.69;100965.41;15533985;28;20046;-61
2021/06/12 08:48:20;;;;;;;1999.90;999.90;;;;;;;23.19;62.95;100967.53;15532865;28;20042;-61
2021/06/12 08:55:53;;;;;;;1999.90;999.90;;;;;;;23.62;62.33;100968.13;15550386;28;20081;-61
2021/06/12 09:03:27;;;;;;;1999.90;999.90;;;;;;;23.79;61.88;100966.41;15529690;28;20040;-59
2021/06/12 09:11:04;;;;;;;1999.90;999.90;;;;;;;23.31;62.54;100961.38;15546430;28;20065;-60
2021/06/12 09:18:38;;;;;;;1999.90;999.90;;;;;;;23.44;62.25;100961.69;15543019;28;20038;-63
2021/06/12 09:26:13;;;;;;;1999.90;999.90;;;;;;;23.31;62.93;100967.88;15548038;28;20102;-63
2021/06/12 09:33:44;;;;;;;1999.90;999.90;;;;;;;22.76;64.10;100961.97;15522931;28;20037;-58
2021/06/12 09:41:28;;;;;;;1999.90;999.90;;;;;;;22.42;69.37;100970.16;15547164;28;20060;-63
2021/06/12 09:49:00;;;;;;;1999.90;999.90;;;;;;;22.37;72.51;100976.25;15530674;28;20122;-62
2021/06/12 09:56:34;;;;;;;1999.90;999.90;;;;;;;22.57;70.84;100970.94;15530019;28;20416;-62
2021/06/12 10:04:11;;;;;;;1999.90;999.90;;;;;;;22.63;71.81;100969.31;15502810;28;20408;-62
2021/06/12 10:11:45;;;;;;;1999.90;999.90;;;;;;;22.54;71.61;100963.25;15514188;28;20093;-62
2021/06/12 10:19:17;;;;;;;1999.90;999.90;;;;;;;22.96;71.94;100968.03;15542030;28;20073;-62
2021/06/12 10:26:50;;;;;;;;;;;;;;;23.02;72.31;100952.13;15529877;28;20133;-62
2021/06/12 10:34:24;;;;;;;1999.90;999.90;;;;;;;23.31;68.09;100952.81;15523517;28;19925;-62
2021/06/12 10:42:11;;;;;;;1999.90;999.90;;;;;;;23.79;65.74;100932.22;15555050;28;20100;-63
2021/06/12 10:49:43;;;;;;;1999.90;999.90;;;;;;;25.50;57.62;100930.34;15557192;28;20046;-64
2021/06/12 10:57:19;;;;;;;1999.90;999.90;;;;;;;26.45;54.23;100930.06;15556552;28;20510;-60
2021/06/12 11:04:55;;;;;;;1999.90;999.90;;;;;;;25.95;55.01;100907.22;15539246;28;20055;-62
2021/06/12 11:12:35;;;;;;;1999.90;999.90;;;;;;;25.66;55.08;100901.97;15538794;28;20076;-59
2021/06/12 11:20:27;;;;;;;1999.90;999.90;;;;;;;25.45;54.77;100893.72;15555534;28;20062;-62
2021/06/12 11:28:35;;;;;;;1999.90;999.90;;;;;;;25.70;52.64;100879.06;15555343;28;20033;-62
2021/06/12 11:36:25;;;;;;;1999.90;999.90;;;;;;;24.77;53.66;100872.59;15531307;28;20166;-61
2021/06/12 11:43:56;;;;;;;1999.90;999.90;;;;;;;24.86;53.58;100857.00;15536448;28;20070;-62
2021/06/12 11:51:32;;;;;;;1999.90;999.90;;;;;;;24.66;52.96;100849.09;15552323;28;20042;-61
2021/06/12 11:59:05;;;;;;;1999.90;999.90;;;;;;;24.40;53.92;100842.06;15551751;28;20141;-58
2021/06/12 12:06:39;;;;;;;1999.90;999.90;;;;;;;23.84;53.79;100855.63;15552683;28;20494;-61
2021/06/12 12:14:10;;;;;;;1999.90;999.90;;;;;;;24.03;54.32;100853.44;15552684;28;20045;-59
2021/06/12 12:21:42;;;;;;;1999.90;999.90;;;;;;;23.67;53.59;100845.22;15548136;28;20134;-60
2021/06/12 12:29:16;;;;;;;1999.90;999.90;;;;;;;23.39;53.29;100857.59;15551348;28;20413;-59
2021/06/12 12:36:49;;;;;;;1999.90;999.90;;;;;;;22.34;60.89;100931.59;15551525;28;20153;-59
2021/06/12 12:44:22;;;;;;;1999.90;999.90;;;;;;;20.24;67.32;100931.72;15550627;28;20042;-58
2021/06/12 12:51:57;;;;;;;1999.90;999.90;;;;;;;20.05;67.52;100923.47;15545706;28;20041;-57
2021/06/12 12:59:35;;;;;;;1999.90;999.90;;;;;;;19.94;69.67;100937.56;15597087;22;20033;-65
2021/06/12 13:07:14;;;;;;;1999.90;999.90;;;;;;;19.77;72.05;100949.53;15641345;28;20416;-65
2021/06/12 13:14:56;;;;;;;1999.90;999.90;;;;;;;19.62;72.56;100954.25;15611212;28;20046;-63
2021/06/12 13:22:32;;;;;;;1999.90;999.90;;;;;;;20.17;72.88;100949.47;15600382;28;20144;-62
2021/06/12 13:30:07;;;;;;;1999.90;999.90;;;;;;;20.65;71.35;100946.59;15608274;28;20042;-64
2021/06/12 13:37:40;;;;;;;1999.90;999.90;;;;;;;20.79;71.63;100936.53;15598459;28;20049;-62
2021/06/12 13:45:12;;;;;;;1999.90;999.90;;;;;;;20.75;71.22;100945.84;15616221;28;20041;-62
2021/06/12 13:52:45;;;;;;;1999.90;999.90;;;;;;;20.55;72.97;100946.53;15621065;28;20401;-62
2021/06/12 14:00:18;;;;;;;1999.90;999.90;;;;;;;21.75;68.09;100940.50;15649124;28;20569;-63
2021/06/12 14:07:51;;;;;;;1999.90;999.90;;;;;;;22.11;67.87;100951.91;15590500;28;20042;-64
2021/06/12 14:15:23;;;;;;;1999.90;999.90;;;;;;;;;;15616511;28;20044;-65
2021/06/12 14:22:57;;;;;;;1999.90;999.90;;;;;;;22.03;66.43;100948.22;15668287;28;20068;-65
2021/06/12 14:30:29;;;;;;;1999.90;999.90;;;;;;;22.65;65.93;100952.66;15624356;28;20133;-65
2021/06/12 14:38:02;;;;;;;1999.90;999.90;;;;;;;22.88;67.09;100950.16;15665257;28;20468;-66
2021/06/12 14:45:34;;;;;;;1999.90;999.90;;;;;;;22.52;66.28;100955.13;15673591;28;20506;-63
2021/06/12 14:53:08;;;;;;;1999.90;999.90;;;;;;;21.90;65.11;100964.06;15655327;28;20055;-65
2021/06/12 15:00:40;;;;;;;1999.90;999.90;;;;;;;22.08;63.81;100975.44;15649116;28;20406;-61
2021/06/12 15:08:13;;;;;;;1999.90;999.90;;;;;;;22.17;62.07;100976.66;15643114;28;20045;-62
2021/06/12 15:15:44;;;;;;;1999.90;999.90;;;;;;;22.21;55.63;100970.19;15640935;28;20525;-67
2021/06/12 15:23:17;;;;;;;1999.90;999.90;;;;;;;21.97;51.39;100966.88;15625692;28;20053;-63
2021/06/12 15:30:52;;;;;;;1999.90;999.90;;;;;;;22.31;50.11;100960.84;15656388;28;20139;-65
2021/06/12 15:38:25;;;;;;;1999.90;999.90;;;;;;;22.24;48.56;100964.50;15625884;28;20042;-65
2021/06/12 15:45:58;;;;;;;1999.90;999.90;;;;;;;22.83;46.74;100964.00;15623842;28;20528;-65
2021/06/12 15:53:31;;;;;;;1999.90;999.90;;;;;;;23.10;47.55;100956.59;15631058;28;20498;-64
2021/06/12 16:01:03;;;;;;;1999.90;999.90;;;;;;;22.88;43.95;100972.13;15615113;28;20115;-64
2021/06/12 16:08:36;;;;;;;1999.90;999.90;;;;;;;22.75;41.46;100971.72;15649729;28;20542;-65
2021/06/12 16:16:10;;;;;;;1999.90;999.90;;;;;;;22.71;42.01;100985.13;15655897;28;20044;-64
2021/06/12 16:23:44;;;;;;;1999.90;999.90;;;;;;;22.81;41.94;100997.69;15608029;28;20144;-64
2021/06/12 16:31:16;;;;;;;1999.90;999.90;;;;;;;22.92;42.51;101013.56;15659061;28;20134;-66
2021/06/12 16:38:52;;;;;;;1999.90;999.90;;;;;;;22.65;40.71;101016.03;15633380;28;20046;-66
2021/06/12 16:46:23;;;;;;;1999.90;999.90;;;;;;;22.80;41.58;101025.34;15618379;28;20069;-64
2021/06/12 16:53:58;;;;;;;1999.90;999.90;;;;;;;22.64;41.45;101013.59;15665400;28;20037;-65
2021/06/12 17:01:30;;;;;;;1999.90;999.90;;;;;;;22.31;42.43;101035.56;15650962;28;20052;-63
2021/06/12 17:09:05;;;;;;;1999.90;999.90;;;;;;;22.35;44.40;101035.56;15610827;28;20090;-64
2021/06/12 17:16:36;;;;;;;1999.90;999.90;;;;;;;22.01;41.94;101052.97;15635750;28;20048;-66
2021/06/12 17:24:10;;;;;;;1999.90;999.90;;;;;;;22.13;42.31;101074.53;15624072;28;20044;-65
2021/06/12 17:31:42;;;;;;;1999.90;999.90;;;;;;;21.98;41.03;101087.84;15644006;28;20045;-64
2021/06/12 17:39:15;;;;;;;1999.90;999.90;;;;;;;21.62;40.38;101106.81;15672545;28;20041;-67
2021/06/12 17:46:48;;;;;;;1999.90;999.90;;;;;;;21.44;40.25;101103.06;15622685;28;20517;-62
2021/06/12 17:54:22;;;;;;;1999.90;999.90;;;;;;;21.26;40.73;101125.69;15631540;28;20045;-63
2021/06/12 18:01:54;;;;;;;1999.90;999.90;;;;;;;21.12;41.62;101112.19;15647451;28;20040;-64
2021/06/12 18:09:27;;;;;;;1999.90;999.90;;;;;;;21.16;42.28;101124.38;15645477;28;20049;-65
2021/06/12 18:16:59;;;;;;;1999.90;999.90;;;;;;;20.93;42.66;101140.81;15639492;28;20734;-63
2021/06/12 18:24:32;;;;;;;1999.90;999.90;;;;;;;20.98;43.29;101146.94;15636049;28;20461;-65
2021/06/12 18:32:04;;;;;;;1999.90;999.90;;;;;;;20.70;44.25;101158.06;15668132;28;20041;-63
2021/06/12 18:39:37;;;;;;;1999.90;999.90;;;;;;;20.54;45.06;101172.50;15648174;28;20040;-63
2021/06/12 18:47:10;;;;;;;1999.90;999.90;;;;;;;20.24;46.00;101178.22;15631009;28;20780;-62
2021/06/12 18:54:43;;;;;;;1999.90;999.90;;;;;;;20.33;46.37;101203.44;15635574;28;20463;-61
2021/06/12 19:02:15;;;;;;;1999.90;999.90;;;;;;;19.71;46.95;101214.41;15712423;22;20053;-84
2021/06/12 19:09:48;;;;;;;1999.90;999.90;;;;;;;19.57;47.18;101238.44;15693105;28;20654;-85
2021/06/12 19:17:20;;;;;;;1999.90;999.90;;;;;;;19.35;46.09;101255.47;15688173;28;20110;-83
2021/06/12 19:24:54;;;;;;;1999.90;999.90;;;;;;;19.07;47.02;101253.81;15701094;28;20076;-84
2021/06/12 19:32:26;;;;;;;1999.90;999.90;;;;;;;18.97;46.95;101260.09;15693049;28;20052;-82
2021/06/12 19:39:59;;;;;;;1999.90;999.90;;;;;;;18.64;46.99;101289.75;15714790;28;20491;-83
2021/06/12 19:47:34;;;;;;;1999.90;999.90;;;;;;;18.49;47.08;101298.31;15720269;28;20052;-83
2021/06/12 19:55:10;;;;;;;1999.90;999.90;;;;;;;18.31;46.83;101309.25;15707398;28;20056;-81
2021/06/12 20:02:44;;;;;;;1999.90;999.90;;;;;;;18.30;47.36;101330.22;15709820;28;20459;-80
2021/06/12 20:10:19;;;;;;;1999.90;999.90;;;;;;;18.28;47.59;101329.78;15701951;28;20055;-83
2021/06/12 20:17:51;;;;;;;1999.90;999.90;;;;;;;18.13;48.09;101339.91;15700885;28;20459;-82
2021/06/12 20:25:24;;;;;;;1999.90;999.90;;;;;;;18.02;48.55;101352.97;15682819;28;20049;-84
2021/06/12 20:32:56;;;;;;;1999.90;999.90;;;;;;;17.75;49.66;101360.44;15706663;28;20083;-84
2021/06/12 20:40:30;;;;;;;1999.90;999.90;;;;;;;17.78;50.10;101377.44;15683894;28;20051;-82
2021/06/12 20:48:02;;;;;;;1999.90;999.90;;;;;;;17.60;51.34;101376.97;15691179;28;20049;-82
2021/06/12 20:55:35;;;;;;;1999.90;999.90;;;;;;;17.53;51.40;101379.63;15704681;28;20127;-85
2021/06/12 21:03:07;;;;;;;1999.90;999.90;;;;;;;17.58;52.25;101384.97;15716594;28;20104;-83
2021/06/12 21:10:43;;;;;;;1999.90;999.90;;;;;;;17.41;53.60;101402.28;15699758;28;20397;-81
2021/06/12 21:18:15;;;;;;;;;;;;;;;17.61;53.33;101406.00;15692829;28;20037;-84
2021/06/12 21:25:49;;;;;;;1999.90;999.90;;;;;;;17.19;54.56;101391.59;15734554;28;19928;-83
2021/06/12 21:33:56;;;;;;;1999.90;999.90;;;;;;;17.31;55.03;101411.28;15696703;28;20025;-85
2021/06/12 21:41:37;;;;;;;1999.90;999.90;;;;;;;17.23;55.36;101404.63;15684620;28;20048;-82
2021/06/12 21:49:14;;;;;;;1999.90;999.90;;;;;;;17.06;56.17;101404.13;15711628;28;20063;-83
2021/06/12 21:56:48;;;;;;;1999.90;999.90;;;;;;;16.94;56.83;101434.03;15678006;28;20048;-82
2021/06/12 22:04:22;;;;;;;1999.90;999.90;;;;;;;16.99;57.61;101442.25;15660162;28;20512;-83
2021/06/12 22:11:57;;;;;;;1999.90;999.90;;;;;;;16.91;57.68;101451.69;15684317;28;20615;-82
2021/06/12 22:19:30;;;;;;;1999.90;999.90;;;;;;;16.78;58.27;101466.16;15687396;28;20045;-84
2021/06/12 22:27:04;;;;;;;1999.90;999.90;;;;;;;16.54;59.25;101465.00;15699278;28;20053;-82
2021/06/12 22:34:36;;;;;;;1999.90;999.90;;;;;;;16.53;59.47;101474.66;15690099;28;20416;-83
2021/06/12 22:42:09;;;;;;;1999.90;999.90;;;;;;;16.29;60.77;101475.50;15699862;28;20135;-83
2021/06/12 22:49:41;;;;;;;1999.90;999.90;;;;;;;16.52;60.61;101487.09;15695901;28;20048;-82
2021/06/12 22:57:14;;;;;;;1999.90;999.90;;;;;;;16.45;60.37;101486.84;15684150;28;20051;-83
2021/06/12 23:04:45;;;;;;;1999.90;999.90;;;;;;;16.29;60.96;101488.78;15712279;28;20417;-81
2021/06/12 23:12:18;;;;;;;1999.90;999.90;;;;;;;16.45;60.10;101504.59;15689574;28;20052;-82
2021/06/12 23:19:50;;;;;;;1999.90;999.90;;;;;;;16.22;60.33;101502.63;15692306;28;20324;-82
2021/06/12 23:27:23;;;;;;;1999.90;999.90;;;;;;;15.98;60.34;101490.19;15690255;28;20052;-81
2021/06/12 23:34:55;;;;;;;1999.90;999.90;;;;;;;16.03;60.46;101492.75;15680015;28;20041;-82
2021/06/12 23:42:28;;;;;;;1999.90;999.90;;;;;;;16.10;60.38;101509.06;15716580;28;20071;-83
2021/06/12 23:50:00;;;;;;;1999.90;999.90;;;;;;;15.75;60.59;101511.50;15709440;28;20048;-81
2021/06/12 23:57:32;;;;;;;1999.90;999.90;;;;;;;15.70;60.68;101523.78;15700060;28;20057;-83
